createdAt,value
2018-12-30T00:02:14.242Z,2.98
2018-12-30T00:04:58.059Z,2.77
2018-12-30T00:07:42.517Z,2.72
2018-12-30T00:10:26.262Z,2.17
2018-12-30T00:13:10.446Z,2.53
2018-12-30T00:19:33.576Z,1.80
2018-12-30T00:22:19.646Z,2.05
2018-12-30T00:25:03.903Z,2.00
2018-12-30T00:27:48.640Z,1.67
2018-12-30T00:30:32.440Z,1.90
2018-12-30T00:33:16.057Z,1.80
2018-12-30T00:35:59.542Z,1.80
2018-12-30T00:38:43.629Z,1.70
2018-12-30T00:45:07.553Z,1.60
2018-12-30T00:48:08.639Z,1.40
2018-12-30T00:50:53.085Z,1.87
2018-12-30T00:53:36.527Z,1.57
2018-12-30T00:59:59.584Z,2.00
2018-12-30T01:03:00.928Z,1.70
2018-12-30T01:05:45.105Z,1.72
2018-12-30T01:08:29.317Z,1.60
2018-12-30T01:11:13.682Z,1.60
2018-12-30T01:13:57.762Z,1.50
2018-12-30T01:16:42.099Z,1.50
2018-12-30T01:23:05.989Z,1.20
2018-12-30T01:25:50.734Z,1.40
2018-12-30T01:32:14.573Z,1.60
2018-12-30T01:34:59.476Z,3.53
2018-12-30T01:41:23.008Z,6.15
2018-12-30T01:44:06.936Z,6.20
2018-12-30T01:47:08.366Z,5.83
2018-12-30T01:50:09.511Z,6.40
2018-12-30T01:53:10.976Z,5.80
2018-12-30T01:55:55.513Z,5.10
2018-12-30T01:58:39.249Z,5.27
2018-12-30T02:01:40.551Z,4.62
2018-12-30T02:04:41.549Z,4.40
2018-12-30T02:07:26.820Z,4.70
2018-12-30T02:10:10.845Z,4.00
2018-12-30T02:13:12.051Z,4.17
2018-12-30T02:16:13.461Z,4.12
2018-12-30T02:19:14.899Z,3.72
2018-12-30T02:21:59.386Z,2.85
2018-12-30T02:24:43.178Z,2.80
2018-12-30T02:27:27.183Z,2.80
2018-12-30T02:30:11.362Z,2.85
2018-12-30T02:33:12.961Z,3.00
2018-12-30T02:35:56.976Z,2.52
2018-12-30T02:38:40.771Z,2.60
2018-12-30T02:41:42.065Z,2.80
2018-12-30T02:44:25.646Z,2.83
2018-12-30T02:53:48.105Z,3.50
2018-12-30T02:56:49.603Z,3.75
2018-12-30T02:59:34.043Z,3.58
2018-12-30T03:05:57.387Z,3.10
2018-12-30T03:10:18.990Z,3.80
2018-12-30T03:16:45.750Z,4.83
2018-12-30T03:19:29.372Z,5.40
2018-12-30T03:22:12.982Z,5.30
2018-12-30T03:25:14.373Z,5.53
2018-12-30T03:27:59.009Z,6.10
2018-12-30T03:38:49.830Z,6.00
2018-12-30T03:41:50.803Z,5.90
2018-12-30T03:44:37.996Z,5.60
2018-12-30T03:47:21.831Z,5.80
2018-12-30T03:50:05.887Z,6.03
2018-12-30T03:52:49.668Z,5.90
2018-12-30T03:55:33.672Z,5.87
2018-12-30T03:58:17.421Z,5.20
2018-12-30T04:02:16.096Z,6.17
2018-12-30T04:05:17.176Z,6.20
2018-12-30T04:08:19.783Z,5.60
2018-12-30T04:11:20.829Z,5.20
2018-12-30T04:14:22.157Z,5.40
2018-12-30T04:17:06.393Z,4.75
2018-12-30T04:19:50.219Z,4.93
2018-12-30T04:22:33.946Z,4.80
2018-12-30T04:25:35.506Z,4.80
2018-12-30T04:28:19.396Z,4.50
2018-12-30T04:31:03.245Z,4.90
2018-12-30T04:33:48.151Z,5.60
2018-12-30T04:36:31.840Z,4.70
2018-12-30T23:55:39.437Z,2.27
2018-12-30T23:58:40.790Z,2.33
